Costa Luminosa — ICGU — position and weather

sailwx.info

Track history (hours):
 
Tides and Currents Weather Stations Pressure Air Temp Water Temp Dewpoint Dewpoint Depression Visibility Wind Speed Wind Dir Waves Ship Positions

Costa Luminosa

Last reported at 2017-Jul-22 12:27 UTC. Time now 2017-Jul-22 12:44 UTC.
Position N 45°26' E 012°18'.

Length 294 m; draft 8 m.

Type: Passenger vessel. MMSI: 247257900.

Date/timePositionNaut miles runAvg speedWind from/ knotsBaromVisibWave heightAir tempDewpointWater temp
2017-Jul-22 12:27N 45°26' E 012°18'0 0.0
2017-Jul-22 11:57N 45°26' E 012°18'0 0.0
2017-Jul-22 11:27N 45°26' E 012°18'0 0.0
2017-Jul-22 10:57N 45°26' E 012°18'0 0.0
2017-Jul-22 10:27N 45°26' E 012°18'0 0.0
2017-Jul-22 09:57N 45°26' E 012°18'0 0.0
2017-Jul-22 09:27N 45°26' E 012°18'0 0.0
2017-Jul-22 08:57N 45°26' E 012°18'0 0.0
2017-Jul-22 08:27N 45°26' E 012°18'1 1.2
2017-Jul-22 08:00N 45°26' E 012°19'3 5.0
2017-Jul-22 07:30N 45°25' E 012°22'3 6.7
2017-Jul-22 07:00N 45°25' E 012°27'713.2
2017-Jul-22 06:30N 45°21' E 012°35'1019.2
2017-Jul-22 06:00N 45°14' E 012°44'1020.4
2017-Jul-22 05:31N 45°07' E 012°54'1020.5
2017-Jul-22 05:00N 45°03' E 013°08'1020.7
2017-Jul-22 04:30N 44°59' E 013°21'1121.1
2017-Jul-22 04:00N 44°55' E 013°35'816.6
2017-Jul-22 03:30N 44°53' E 013°46'0 0.4
2017-Jul-22 02:59N 44°53' E 013°47'0 0.7
2017-Jul-22 02:30N 44°53' E 013°47'714.2
2017-Jul-22 02:01N 44°48' E 013°41'816.3
2017-Jul-22 01:30N 44°40' E 013°36'917.9
2017-Jul-22 01:00N 44°33' E 013°43'918.0
2017-Jul-22 00:30N 44°26' E 013°50'917.9
2017-Jul-22 00:00N 44°18' E 013°57'917.8
2017-Jul-21 23:30N 44°11' E 014°04'917.6
2017-Jul-21 23:00N 44°04' E 014°12'917.9
2017-Jul-21 22:30N 43°59' E 014°22'918.0
2017-Jul-21 22:00N 43°53' E 014°31'918.1
2017-Jul-21 21:30N 43°47' E 014°41'918.0
2017-Jul-21 21:00N 43°41' E 014°51'22910.2
2017-Jul-20 22:33N 41°09' E 018°42'318.6
2017-Jul-20 22:25N 41°07' E 018°43'1018.9
2017-Jul-20 21:53N 40°57' E 018°47'718.9
2017-Jul-20 21:30N 40°50' E 018°49'1018.8
2017-Jul-20 20:58N 40°40' E 018°53'1218.2
2017-Jul-20 20:20N 40°29' E 018°57'717.9
2017-Jul-20 19:58N 40°23' E 018°59'8918.4
2017-Jul-20 15:07N 38°59' E 019°37'318.3
2017-Jul-20 14:57N 38°56' E 019°39'5218.9
2017-Jul-20 12:12N 38°07' E 020°02'618.6
2017-Jul-20 11:54N 38°02' E 020°05'4418.1
2017-Jul-20 09:27N 37°24' E 020°34'20416.2
2017-Jul-19 20:51N 37°12' E 024°50'617.4
2017-Jul-19 20:30N 37°15' E 024°56'918.9
2017-Jul-19 20:00N 37°21' E 025°06'918.8
2017-Jul-19 19:30N 37°28' E 025°13'5 9.6
2017-Jul-19 19:01N 37°28' E 025°19'0 0.0
2017-Jul-19 18:29N 37°28' E 025°19'0 0.0
2017-Jul-19 17:59N 37°28' E 025°19'0 0.0
2017-Jul-19 17:29N 37°28' E 025°19'0 0.0
2017-Jul-19 16:59N 37°28' E 025°19'0 0.0
2017-Jul-19 16:29N 37°28' E 025°19'0 0.0
2017-Jul-19 15:59N 37°28' E 025°19'0 0.0
2017-Jul-19 15:26N 37°28' E 025°19'0 0.0
2017-Jul-19 14:59N 37°28' E 025°19'0 0.0
2017-Jul-19 14:29N 37°28' E 025°19'0 0.0
2017-Jul-19 13:59N 37°28' E 025°19'0 0.0
2017-Jul-19 13:29N 37°28' E 025°19'0 0.0
2017-Jul-19 12:59N 37°28' E 025°19'0 0.0
2017-Jul-19 12:29N 37°28' E 025°19'0 0.0
2017-Jul-19 11:59N 37°28' E 025°19'0 0.0
2017-Jul-19 11:26N 37°28' E 025°19'0 0.0
2017-Jul-19 10:59N 37°28' E 025°19'0 0.0
2017-Jul-19 10:29N 37°28' E 025°19'0 0.0
2017-Jul-19 09:53N 37°28' E 025°19'0 0.0
2017-Jul-19 09:23N 37°28' E 025°19'0 0.0
2017-Jul-19 08:59N 37°28' E 025°19'0 0.0
2017-Jul-19 08:29N 37°28' E 025°19'0 0.0
2017-Jul-19 07:56N 37°28' E 025°19'0 0.0
2017-Jul-19 07:29N 37°28' E 025°19'0 0.0
2017-Jul-19 06:59N 37°28' E 025°19'0 0.0
2017-Jul-19 06:29N 37°28' E 025°19'0 0.0
2017-Jul-19 05:56N 37°28' E 025°19'0 0.0
2017-Jul-19 05:29N 37°28' E 025°19'0 0.0
2017-Jul-19 04:59N 37°28' E 025°19'0 0.0
2017-Jul-19 04:29N 37°28' E 025°19'0 0.0
2017-Jul-19 03:59N 37°28' E 025°19'0 0.0
2017-Jul-19 03:30N 37°28' E 025°19'1 2.2
2017-Jul-19 03:00N 37°28' E 025°18'713.5
2017-Jul-19 02:30N 37°27' E 025°09'914.4
2017-Jul-19 01:55N 37°19' E 025°04'614.6
2017-Jul-19 01:31N 37°15' E 024°59'815.1
2017-Jul-19 01:00N 37°12' E 024°51'  
2017-Jul-16 17:43N 44°02' E 014°05'521.4
2017-Jul-16 17:30N 44°06' E 014°02'1121.3
2017-Jul-16 17:00N 44°15' E 013°54'1121.4
2017-Jul-16 16:30N 44°24' E 013°45'1121.4
2017-Jul-16 16:00N 44°33' E 013°37'1021.1
2017-Jul-16 15:30N 44°41' E 013°29'1121.6
2017-Jul-16 15:00N 44°51' E 013°20'1121.1
2017-Jul-16 14:30N 44°60' E 013°13'1021.1
2017-Jul-16 14:00N 45°09' E 013°06'1121.0
2017-Jul-16 13:30N 45°19' E 013°02'1019.9
2017-Jul-16 13:00N 45°27' E 013°10'1020.5
2017-Jul-16 12:30N 45°34' E 013°21'1020.6
2017-Jul-16 12:00N 45°38' E 013°34'714.6
2017-Jul-16 11:30N 45°39' E 013°45'1 1.5
2017-Jul-16 10:58N 45°39' E 013°46'0 0.0
2017-Jul-16 10:28N 45°39' E 013°46'0 0.0
2017-Jul-16 09:58N 45°39' E 013°46'0 0.0
2017-Jul-16 09:28N 45°39' E 013°46'0 0.0
2017-Jul-16 08:58N 45°39' E 013°46'0 0.0
2017-Jul-16 08:28N 45°39' E 013°46'0 0.0
2017-Jul-16 07:55N 45°39' E 013°46'0 0.0
2017-Jul-16 07:28N 45°39' E 013°46'0 0.0
2017-Jul-16 06:58N 45°39' E 013°46'0 0.0
2017-Jul-16 06:28N 45°39' E 013°46'0 0.0
2017-Jul-16 05:58N 45°39' E 013°46'0 0.0
2017-Jul-16 05:28N 45°39' E 013°46'0 0.0
2017-Jul-16 04:58N 45°39' E 013°46'0 0.0
2017-Jul-16 04:28N 45°39' E 013°46'1 1.7
2017-Jul-16 04:00N 45°39' E 013°45'5 9.8
2017-Jul-16 03:30N 45°38' E 013°38'510.4
2017-Jul-16 03:00N 45°35' E 013°32'510.2
2017-Jul-16 02:30N 45°32' E 013°26'510.2
2017-Jul-16 02:00N 45°30' E 013°20'510.2
2017-Jul-16 01:30N 45°28' E 013°13'510.1
2017-Jul-16 01:00N 45°26' E 013°06'510.3
2017-Jul-16 00:30N 45°24' E 012°59'5 9.5
2017-Jul-16 00:00N 45°21' E 012°54'510.2
2017-Jul-15 23:30N 45°17' E 012°50'510.1
2017-Jul-15 23:00N 45°13' E 012°46'510.3
2017-Jul-15 22:30N 45°09' E 012°41'510.1
2017-Jul-15 22:00N 45°10' E 012°35'611.4
2017-Jul-15 21:30N 45°15' E 012°30'5 9.6
2017-Jul-15 21:00N 45°18' E 012°25'5 9.2
2017-Jul-15 20:30N 45°20' E 012°19'4 7.6
2017-Jul-15 20:00N 45°23' E 012°16'3 6.9
2017-Jul-15 19:30N 45°27' E 012°16'1 1.5
2017-Jul-15 19:00N 45°27' E 012°15'0 0.0
2017-Jul-15 18:30N 45°27' E 012°15'0 0.0
2017-Jul-15 18:00N 45°27' E 012°15'0 0.0
2017-Jul-15 17:30N 45°27' E 012°15'0 0.0
2017-Jul-15 17:00N 45°27' E 012°15'0 0.0
2017-Jul-15 16:30N 45°27' E 012°15'0 0.0
2017-Jul-15 16:00N 45°27' E 012°15'0 0.0
2017-Jul-15 15:30N 45°27' E 012°15'0 0.0
2017-Jul-15 15:00N 45°27' E 012°15'0 0.0
2017-Jul-15 14:00N 45°27' E 012°15'0 0.0
2017-Jul-15 13:30N 45°27' E 012°15'0 0.0
2017-Jul-15 13:00N 45°27' E 012°15'0 0.0
2017-Jul-15 12:30N 45°27' E 012°15'0 0.0
2017-Jul-15 12:00N 45°27' E 012°15'0 0.0
2017-Jul-15 11:30N 45°27' E 012°15'0 0.0
2017-Jul-15 11:00N 45°27' E 012°15'0 0.0
2017-Jul-15 10:27N 45°27' E 012°15'0 0.0
2017-Jul-15 10:00N 45°27' E 012°15'0 0.0
2017-Jul-15 09:30N 45°27' E 012°15'0 0.0
2017-Jul-15 08:57N 45°27' E 012°15'0 0.0
2017-Jul-15 08:30N 45°27' E 012°15'0 0.0
2017-Jul-15 08:00N 45°27' E 012°15'0 0.0
2017-Jul-15 07:30N 45°27' E 012°15'0 0.0
2017-Jul-15 07:00N 45°27' E 012°15'0 0.0
2017-Jul-15 06:30N 45°27' E 012°15'0 0.0
2017-Jul-15 06:00N 45°27' E 012°15'0 0.0
2017-Jul-15 05:30N 45°27' E 012°15'0 0.8
2017-Jul-15 05:00N 45°27' E 012°16'3 6.8
2017-Jul-15 04:30N 45°24' E 012°16'4 7.4
2017-Jul-15 04:00N 45°20' E 012°18'5 9.6
2017-Jul-15 03:30N 45°19' E 012°25'612.2
2017-Jul-15 03:01N 45°16' E 012°33'816.1
2017-Jul-15 02:31N 45°11' E 012°42'816.7
2017-Jul-15 02:01N 45°07' E 012°51'816.5
2017-Jul-15 01:31N 45°03' E 013°02'816.7
2017-Jul-15 01:01N 44°59' E 013°12'918.1
2017-Jul-15 00:30N 44°54' E 013°23'1019.6
2017-Jul-15 00:00N 44°46' E 013°31'1019.1
2017-Jul-14 23:31N 44°38' E 013°38'1020.0
2017-Jul-14 23:01N 44°30' E 013°46'1020.4
2017-Jul-14 22:31N 44°21' E 013°54'1020.5
2017-Jul-14 22:01N 44°13' E 014°03'1020.3
2017-Jul-14 21:31N 44°05' E 014°12'1020.2
2017-Jul-14 21:00N 43°59' E 014°22'26211.4
2017-Jul-13 22:06N 41°01' E 018°43'218.8
2017-Jul-13 22:00N 40°59' E 018°44'1019.4
2017-Jul-13 21:30N 40°50' E 018°48'1121.3
2017-Jul-13 21:00N 40°39' E 018°52'1121.3
2017-Jul-13 20:30N 40°29' E 018°56'1121.1
2017-Jul-13 20:00N 40°19' E 019°01'30916.8
2017-Jul-13 01:36N 36°28' E 023°22'219.4
2017-Jul-13 01:30N 36°29' E 023°25'1019.5
2017-Jul-13 01:00N 36°34' E 023°35'1019.4
2017-Jul-13 00:30N 36°39' E 023°45'1019.3
2017-Jul-13 00:00N 36°45' E 023°55'1019.5
2017-Jul-12 23:30N 36°50' E 024°05'4219.1
2017-Jul-12 21:19N 37°12' E 024°50'619.0
2017-Jul-12 21:00N 37°15' E 024°56'1019.5
2017-Jul-12 20:30N 37°19' E 025°07'918.2
2017-Jul-12 20:00N 37°28' E 025°12'510.5
2017-Jul-12 19:30N 37°28' E 025°18'1 1.4
2017-Jul-12 18:58N 37°28' E 025°19'0 0.0
2017-Jul-12 18:28N 37°28' E 025°19'0 0.0
2017-Jul-12 17:55N 37°28' E 025°19'0 0.0
2017-Jul-12 17:28N 37°28' E 025°19'0 0.0
2017-Jul-12 16:58N 37°28' E 025°19'0 0.0
2017-Jul-12 16:13N 37°28' E 025°19'0 0.0
2017-Jul-12 15:58N 37°28' E 025°19'0 0.0
2017-Jul-12 15:22N 37°28' E 025°19'0 0.0
2017-Jul-12 14:52N 37°28' E 025°19'0 0.0
2017-Jul-12 13:58N 37°28' E 025°19'0 0.0
2017-Jul-12 13:28N 37°28' E 025°19'0 0.0
2017-Jul-12 12:52N 37°28' E 025°19'  
Track history (hours):
 
Tides and Currents Weather Stations Pressure Air Temp Water Temp Dewpoint Dewpoint Depression Visibility Wind Speed Wind Dir Waves Ship Positions

Costa Luminosa

Last reported at 2017-Jul-22 12:27 UTC. Time now 2017-Jul-22 12:44 UTC.
Position N 45°26' E 012°18'.

Length 294 m; draft 8 m.

Type: Passenger vessel. MMSI: 247257900.

Date/timePositionNaut miles runAvg speedWind from/ knotsBaromVisibWave heightAir tempDewpointWater temp
2017-Jul-22 12:27N 45°26' E 012°18'0 0.0
2017-Jul-22 11:57N 45°26' E 012°18'0 0.0
2017-Jul-22 11:27N 45°26' E 012°18'0 0.0
2017-Jul-22 10:57N 45°26' E 012°18'0 0.0
2017-Jul-22 10:27N 45°26' E 012°18'0 0.0
2017-Jul-22 09:57N 45°26' E 012°18'0 0.0
2017-Jul-22 09:27N 45°26' E 012°18'0 0.0
2017-Jul-22 08:57N 45°26' E 012°18'0 0.0
2017-Jul-22 08:27N 45°26' E 012°18'1 1.2
2017-Jul-22 08:00N 45°26' E 012°19'3 5.0
2017-Jul-22 07:30N 45°25' E 012°22'3 6.7
2017-Jul-22 07:00N 45°25' E 012°27'713.2
2017-Jul-22 06:30N 45°21' E 012°35'1019.2
2017-Jul-22 06:00N 45°14' E 012°44'1020.4
2017-Jul-22 05:31N 45°07' E 012°54'1020.5
2017-Jul-22 05:00N 45°03' E 013°08'1020.7
2017-Jul-22 04:30N 44°59' E 013°21'1121.1
2017-Jul-22 04:00N 44°55' E 013°35'816.6
2017-Jul-22 03:30N 44°53' E 013°46'0 0.4
2017-Jul-22 02:59N 44°53' E 013°47'0 0.7
2017-Jul-22 02:30N 44°53' E 013°47'714.2
2017-Jul-22 02:01N 44°48' E 013°41'816.3
2017-Jul-22 01:30N 44°40' E 013°36'917.9
2017-Jul-22 01:00N 44°33' E 013°43'918.0
2017-Jul-22 00:30N 44°26' E 013°50'917.9
2017-Jul-22 00:00N 44°18' E 013°57'917.8
2017-Jul-21 23:30N 44°11' E 014°04'917.6
2017-Jul-21 23:00N 44°04' E 014°12'917.9
2017-Jul-21 22:30N 43°59' E 014°22'918.0
2017-Jul-21 22:00N 43°53' E 014°31'918.1
2017-Jul-21 21:30N 43°47' E 014°41'918.0
2017-Jul-21 21:00N 43°41' E 014°51'22910.2
2017-Jul-20 22:33N 41°09' E 018°42'318.6
2017-Jul-20 22:25N 41°07' E 018°43'1018.9
2017-Jul-20 21:53N 40°57' E 018°47'718.9
2017-Jul-20 21:30N 40°50' E 018°49'1018.8
2017-Jul-20 20:58N 40°40' E 018°53'1218.2
2017-Jul-20 20:20N 40°29' E 018°57'717.9
2017-Jul-20 19:58N 40°23' E 018°59'8918.4
2017-Jul-20 15:07N 38°59' E 019°37'318.3
2017-Jul-20 14:57N 38°56' E 019°39'5218.9
2017-Jul-20 12:12N 38°07' E 020°02'618.6
2017-Jul-20 11:54N 38°02' E 020°05'4418.1
2017-Jul-20 09:27N 37°24' E 020°34'20416.2
2017-Jul-19 20:51N 37°12' E 024°50'617.4
2017-Jul-19 20:30N 37°15' E 024°56'918.9
2017-Jul-19 20:00N 37°21' E 025°06'918.8
2017-Jul-19 19:30N 37°28' E 025°13'5 9.6
2017-Jul-19 19:01N 37°28' E 025°19'0 0.0
2017-Jul-19 18:29N 37°28' E 025°19'0 0.0
2017-Jul-19 17:59N 37°28' E 025°19'0 0.0
2017-Jul-19 17:29N 37°28' E 025°19'0 0.0
2017-Jul-19 16:59N 37°28' E 025°19'0 0.0
2017-Jul-19 16:29N 37°28' E 025°19'0 0.0
2017-Jul-19 15:59N 37°28' E 025°19'0 0.0
2017-Jul-19 15:26N 37°28' E 025°19'0 0.0
2017-Jul-19 14:59N 37°28' E 025°19'0 0.0
2017-Jul-19 14:29N 37°28' E 025°19'0 0.0
2017-Jul-19 13:59N 37°28' E 025°19'0 0.0
2017-Jul-19 13:29N 37°28' E 025°19'0 0.0
2017-Jul-19 12:59N 37°28' E 025°19'0 0.0
2017-Jul-19 12:29N 37°28' E 025°19'0 0.0
2017-Jul-19 11:59N 37°28' E 025°19'0 0.0
2017-Jul-19 11:26N 37°28' E 025°19'0 0.0
2017-Jul-19 10:59N 37°28' E 025°19'0 0.0
2017-Jul-19 10:29N 37°28' E 025°19'0 0.0
2017-Jul-19 09:53N 37°28' E 025°19'0 0.0
2017-Jul-19 09:23N 37°28' E 025°19'0 0.0
2017-Jul-19 08:59N 37°28' E 025°19'0 0.0
2017-Jul-19 08:29N 37°28' E 025°19'0 0.0
2017-Jul-19 07:56N 37°28' E 025°19'0 0.0
2017-Jul-19 07:29N 37°28' E 025°19'0 0.0
2017-Jul-19 06:59N 37°28' E 025°19'0 0.0
2017-Jul-19 06:29N 37°28' E 025°19'0 0.0
2017-Jul-19 05:56N 37°28' E 025°19'0 0.0
2017-Jul-19 05:29N 37°28' E 025°19'0 0.0
2017-Jul-19 04:59N 37°28' E 025°19'0 0.0
2017-Jul-19 04:29N 37°28' E 025°19'0 0.0
2017-Jul-19 03:59N 37°28' E 025°19'0 0.0
2017-Jul-19 03:30N 37°28' E 025°19'1 2.2
2017-Jul-19 03:00N 37°28' E 025°18'713.5
2017-Jul-19 02:30N 37°27' E 025°09'914.4
2017-Jul-19 01:55N 37°19' E 025°04'614.6
2017-Jul-19 01:31N 37°15' E 024°59'815.1
2017-Jul-19 01:00N 37°12' E 024°51'  
2017-Jul-16 17:43N 44°02' E 014°05'521.4
2017-Jul-16 17:30N 44°06' E 014°02'1121.3
2017-Jul-16 17:00N 44°15' E 013°54'1121.4
2017-Jul-16 16:30N 44°24' E 013°45'1121.4
2017-Jul-16 16:00N 44°33' E 013°37'1021.1
2017-Jul-16 15:30N 44°41' E 013°29'1121.6
2017-Jul-16 15:00N 44°51' E 013°20'1121.1
2017-Jul-16 14:30N 44°60' E 013°13'1021.1
2017-Jul-16 14:00N 45°09' E 013°06'1121.0
2017-Jul-16 13:30N 45°19' E 013°02'1019.9
2017-Jul-16 13:00N 45°27' E 013°10'1020.5
2017-Jul-16 12:30N 45°34' E 013°21'1020.6
2017-Jul-16 12:00N 45°38' E 013°34'714.6
2017-Jul-16 11:30N 45°39' E 013°45'1 1.5
2017-Jul-16 10:58N 45°39' E 013°46'0 0.0
2017-Jul-16 10:28N 45°39' E 013°46'0 0.0
2017-Jul-16 09:58N 45°39' E 013°46'0 0.0
2017-Jul-16 09:28N 45°39' E 013°46'0 0.0
2017-Jul-16 08:58N 45°39' E 013°46'0 0.0
2017-Jul-16 08:28N 45°39' E 013°46'0 0.0
2017-Jul-16 07:55N 45°39' E 013°46'0 0.0
2017-Jul-16 07:28N 45°39' E 013°46'0 0.0
2017-Jul-16 06:58N 45°39' E 013°46'0 0.0
2017-Jul-16 06:28N 45°39' E 013°46'0 0.0
2017-Jul-16 05:58N 45°39' E 013°46'0 0.0
2017-Jul-16 05:28N 45°39' E 013°46'0 0.0
2017-Jul-16 04:58N 45°39' E 013°46'0 0.0
2017-Jul-16 04:28N 45°39' E 013°46'1 1.7
2017-Jul-16 04:00N 45°39' E 013°45'5 9.8
2017-Jul-16 03:30N 45°38' E 013°38'510.4
2017-Jul-16 03:00N 45°35' E 013°32'510.2
2017-Jul-16 02:30N 45°32' E 013°26'510.2
2017-Jul-16 02:00N 45°30' E 013°20'510.2
2017-Jul-16 01:30N 45°28' E 013°13'510.1
2017-Jul-16 01:00N 45°26' E 013°06'510.3
2017-Jul-16 00:30N 45°24' E 012°59'5 9.5
2017-Jul-16 00:00N 45°21' E 012°54'510.2
2017-Jul-15 23:30N 45°17' E 012°50'510.1
2017-Jul-15 23:00N 45°13' E 012°46'510.3
2017-Jul-15 22:30N 45°09' E 012°41'510.1
2017-Jul-15 22:00N 45°10' E 012°35'611.4
2017-Jul-15 21:30N 45°15' E 012°30'5 9.6
2017-Jul-15 21:00N 45°18' E 012°25'5 9.2
2017-Jul-15 20:30N 45°20' E 012°19'4 7.6
2017-Jul-15 20:00N 45°23' E 012°16'3 6.9
2017-Jul-15 19:30N 45°27' E 012°16'1 1.5
2017-Jul-15 19:00N 45°27' E 012°15'0 0.0
2017-Jul-15 18:30N 45°27' E 012°15'0 0.0
2017-Jul-15 18:00N 45°27' E 012°15'0 0.0
2017-Jul-15 17:30N 45°27' E 012°15'0 0.0
2017-Jul-15 17:00N 45°27' E 012°15'0 0.0
2017-Jul-15 16:30N 45°27' E 012°15'0 0.0
2017-Jul-15 16:00N 45°27' E 012°15'0 0.0
2017-Jul-15 15:30N 45°27' E 012°15'0 0.0
2017-Jul-15 15:00N 45°27' E 012°15'0 0.0
2017-Jul-15 14:00N 45°27' E 012°15'0 0.0
2017-Jul-15 13:30N 45°27' E 012°15'0 0.0
2017-Jul-15 13:00N 45°27' E 012°15'0 0.0
2017-Jul-15 12:30N 45°27' E 012°15'0 0.0
2017-Jul-15 12:00N 45°27' E 012°15'0 0.0
2017-Jul-15 11:30N 45°27' E 012°15'0 0.0
2017-Jul-15 11:00N 45°27' E 012°15'0 0.0
2017-Jul-15 10:27N 45°27' E 012°15'0 0.0
2017-Jul-15 10:00N 45°27' E 012°15'0 0.0
2017-Jul-15 09:30N 45°27' E 012°15'0 0.0
2017-Jul-15 08:57N 45°27' E 012°15'0 0.0
2017-Jul-15 08:30N 45°27' E 012°15'0 0.0
2017-Jul-15 08:00N 45°27' E 012°15'0 0.0
2017-Jul-15 07:30N 45°27' E 012°15'0 0.0
2017-Jul-15 07:00N 45°27' E 012°15'0 0.0
2017-Jul-15 06:30N 45°27' E 012°15'0 0.0
2017-Jul-15 06:00N 45°27' E 012°15'0 0.0
2017-Jul-15 05:30N 45°27' E 012°15'0 0.8
2017-Jul-15 05:00N 45°27' E 012°16'3 6.8
2017-Jul-15 04:30N 45°24' E 012°16'4 7.4
2017-Jul-15 04:00N 45°20' E 012°18'5 9.6
2017-Jul-15 03:30N 45°19' E 012°25'612.2
2017-Jul-15 03:01N 45°16' E 012°33'816.1
2017-Jul-15 02:31N 45°11' E 012°42'816.7
2017-Jul-15 02:01N 45°07' E 012°51'816.5
2017-Jul-15 01:31N 45°03' E 013°02'816.7
2017-Jul-15 01:01N 44°59' E 013°12'918.1
2017-Jul-15 00:30N 44°54' E 013°23'1019.6
2017-Jul-15 00:00N 44°46' E 013°31'1019.1
2017-Jul-14 23:31N 44°38' E 013°38'1020.0
2017-Jul-14 23:01N 44°30' E 013°46'1020.4
2017-Jul-14 22:31N 44°21' E 013°54'1020.5
2017-Jul-14 22:01N 44°13' E 014°03'1020.3
2017-Jul-14 21:31N 44°05' E 014°12'1020.2
2017-Jul-14 21:00N 43°59' E 014°22'26211.4
2017-Jul-13 22:06N 41°01' E 018°43'218.8
2017-Jul-13 22:00N 40°59' E 018°44'1019.4
2017-Jul-13 21:30N 40°50' E 018°48'1121.3
2017-Jul-13 21:00N 40°39' E 018°52'1121.3
2017-Jul-13 20:30N 40°29' E 018°56'1121.1
2017-Jul-13 20:00N 40°19' E 019°01'30916.8
2017-Jul-13 01:36N 36°28' E 023°22'219.4
2017-Jul-13 01:30N 36°29' E 023°25'1019.5
2017-Jul-13 01:00N 36°34' E 023°35'1019.4
2017-Jul-13 00:30N 36°39' E 023°45'1019.3
2017-Jul-13 00:00N 36°45' E 023°55'1019.5
2017-Jul-12 23:30N 36°50' E 024°05'4219.1
2017-Jul-12 21:19N 37°12' E 024°50'619.0
2017-Jul-12 21:00N 37°15' E 024°56'1019.5
2017-Jul-12 20:30N 37°19' E 025°07'918.2
2017-Jul-12 20:00N 37°28' E 025°12'510.5
2017-Jul-12 19:30N 37°28' E 025°18'1 1.4
2017-Jul-12 18:58N 37°28' E 025°19'0 0.0
2017-Jul-12 18:28N 37°28' E 025°19'0 0.0
2017-Jul-12 17:55N 37°28' E 025°19'0 0.0
2017-Jul-12 17:28N 37°28' E 025°19'0 0.0
2017-Jul-12 16:58N 37°28' E 025°19'0 0.0
2017-Jul-12 16:13N 37°28' E 025°19'0 0.0
2017-Jul-12 15:58N 37°28' E 025°19'0 0.0
2017-Jul-12 15:22N 37°28' E 025°19'0 0.0
2017-Jul-12 14:52N 37°28' E 025°19'0 0.0
2017-Jul-12 13:58N 37°28' E 025°19'0 0.0
2017-Jul-12 13:28N 37°28' E 025°19'0 0.0
2017-Jul-12 12:52N 37°28' E 025°19'  

Dump ship's entire track history